ENFL/FRO METAR and TAF weather

Enter ICAO airport designator
Station Type Date Time Source
ENFL METAR 2020/01/22 15:20 UTC NOAA

ENFL 221520Z 10008KT 9999 FEW030 SCT100 03/00 Q1031


Station Type Date Time Source
ENFL Decoded METAR 2020/01/22 15:20 UTC NOAA

Floro, Norway (ENFL) 61-35N 005-02E 9M
Jan 22, 2020 - 10:20 AM EST / 2020.01.22 1520 UTC
Wind: from the E (100 degrees) at 9 MPH (8 KT):0
Visibility: greater than 7 mile(s):0
Sky conditions: partly cloudy
Temperature: 37 F (3 C)
Dew Point: 32 F (0 C)
Relative Humidity: 80%
Pressure (altimeter): 30.45 in. Hg (1031 hPa)
ob: ENFL 221520Z 10008KT 9999 FEW030 SCT100 03/00 Q1031
cycle: 15

Station Type Date Time Source
ENFL TAF 2010/02/05 07:50 UTC NOAA

METAR ENFL 050750Z 16019KT 140V200 9999 FEW015 SCT030 BKN055 03/M03 Q1011

Example: see airport list